Athens, TN

1:56 PM EST on December 22, 2014 (GMT -0500)
City Park, Athens, TN | Change Station
CLOSE
Current Station
Personal Weather Station
Location: Athens, TN
Elevation: 906 ft
Nearby Weather Stations

Elev 906 ft 35.44 °N, 84.60 °W | Updated 11 minutes ago

Overcast
Overcast
58.1 °F
Feels Like 58.1 °F
N
0.0
Wind Variable Wind from North
Gusts 0.0 mph

Today
High -- | Low -- °F
--% Chance of Precip.
Yesterday
High -- | Low -- °F
Precip. -- in
7:44 AM 5:29 PM
New Moon, 1% visible
Pressure 29.91 in
Visibility 10.0 miles
Clouds Overcast 3200 ft
Dew Point 52 °F
Humidity 80%
Rainfall 0.00 in
Snow Depth Not available.
UV 0.0 out of 12
Pollen .30 out of 12
Air Quality Not available.
Flu Activity Not available.
METAR KMMI 221815Z AUTO 26003KT 10SM OVC032 12/06 A2991 RMK

More Conditions Fewer Conditions

Pressure 29.91 in
Visibility 10.0 miles
Clouds Overcast 3200 ft
Dew Point 52 °F
Humidity 80%
Rainfall 0.00 in
Snow Depth Not available.
UV 0.0 out of 12
Pollen .30 out of 12
Air Quality Not available.
Flu Activity Not available.
METAR KMMI 221815Z AUTO 26003KT 10SM OVC032 12/06 A2991 RMK

More Conditions Fewer Conditions

10-Day Weather Forecast

Almanac

Astronomy

Dec. 22, 2014 Rise Set
Actual Time
Civil Twilight
Nautical Twilight
Astronomical Twilight
Moon
Length of Visible Light
Length of Day
Tomorrow will be .
, % of the Moon is Illuminated

Today's Extremes

State Highs State Lows

Community

WunderPhotos

Upload Photos

1,779,687 photos uploaded!

WunderBlogs® & News

Nearby

Air Quality

  Air Quality AQ Index Pollutant
Not available.

Snow Depth

Station Depth Elevation

Earthquake Activity

City Distance Mag. Time & Date
Minimum magnitude displayed is 2.5.

Coastal Water Temperatures

Place Temperature

Nearby Weather Stations